Upper Saddle River, New Jersey
Current Conditions -  °F | °C
As of 10:51 AM on Thursday 30 Oct 2014 (Local Time) from KTEB Reporting Station
Clear Clear  
Wind Chill: 56°   Ceiling: Unl
Heat Index: 56°   Visibility: 10mi
Dew Point: 40°   Wind: 8mph
Humidity: 55%   Direction: 320°NW
Pressure: 29.99"   Gusts: NA
Location:  41.0459°N, 74.097°W
Report Text: KTEB 301451Z 32007KT 10SM CLR 13/04 A2999 RMK AO2 SLP157 T01330044 51004
Loading
Personal Weather Stations






























Interactive Weather Map
Tropical Storm Tracking
New forecast layout! Learn more

10-Day Weather Forecast

Advertisements
Track Severe Weather on mobile